Barnstable Municipal Boardman Polando Field
KHYA : now visible

Airfield :











YOU CAN JOIN US ON...

 
LOGIN :

Register | Disclaimer

   EN    FR    IT 

 









Legend :    VFR   Marginal VFR   IFR   Intensive IFR   Very Intensive IFR
Visi :
Ceiling :
>= 8 km
>= 3000ft
5 to 8 km
1000 to 3000 ft
1500m to 5 km
500 to 1000 ft
800 to 1500m
200 to 500 ft
< 800m
< 200 ft
Symbols :   Thunderstorms  Fog  Heavy snow  Heavy precipitations  Wind > 20 kt






- Airport Elevation : 54 ft
- IATA code : HYA


KHYA - Barnstable Municipal Boardman Polando Field

CURRENT METAR :
  • 291656Z 21014G23KT 3/4SM BR OVC002 19/19 A3004 RMK AO2 SLPNO T01890189 $

EXPIRED METARs :
  • 291605Z 21011G21KT 3/4SM BR OVC002 19/19 A3005 RMK AO2 T01890189 $
  • 291556Z 21014G22KT 3/4SM BR OVC002 19/18 A3005 RMK AO2 RAE1458 SLPNO P0000 T01890183 $
  • 291514Z 21016G20KT 1/2SM FG OVC002 19/18 A3007 RMK AO2 RAE1458 P0000 T01890183 $
  • 291503Z 21012KT 1SM BR OVC002 A3007 RMK AO2 RAE1458 P0000 $
  • 291456Z 20010G20KT 1/2SM -RA FG OVC002 18/18 A3007 RMK AO2 RAB48 SLPNO P0000 60002 T01780178 56007 $

TAF KHYA
Valid from the 29 at 15:00 until the 30 at 12:00 UTC


291456Z 2915/3012 20013G19KT 3/4SM BR VCSH OVC003
FM291700 23015G24KT 1SM BR OVC007
FM291900 21015G24KT 2SM BR OVC009
FM300500 20016G26KT 2SM -SHRA BR OVC008 WS020/22045KT
FM300900 21015G25KT 2SM BR VCSH OVC008
KZBW FIR / North America



MET'MAP, your aeronautical weather chart ! - Copyright ORBIFLY December 2007 - Disclaimer

ORBIFLY MET'MAP TEAM :

Programming & Development : Alexandra Zaïnal
Concept & original design : Baudouin d'Aumeries
Assistance for programming : Marc-Olivier Méhu
Technical & hardware support : Manuel Goepfert

Contact : metmap@orbifly.com




SOURCES & CREDITS :

   NOAA       Earth
Advisory